AFL1296 ULMM-UUYH
Flight info
| Callsign | AFL1296 |
|---|---|
| Flight time | N/A |
| Altitude | 35000 |
| Route | K0876F350 DCT LOPRA T822 SOTIS P35 UTUKA DCT |
| Aircraft | B738/M-SDGILRWY/SB1 |
Departure
| Time | N/A |
|---|---|
| Airport | Emperor Nicholas II Murmansk Airport (ULMM) |
Arrival
| Time | 2026-04-27 18:28 |
|---|---|
| Airport | Ukhta Airport (UUYH) |
| Time | Latitude | Longitude | Altitude | Speed | Heading |
|---|---|---|---|---|---|
| 2026-04-27 17:59 | 64.42311 | 49.01178 | 34543 ft | 458 kts | 115° |
| 2026-04-27 17:59 | 64.40330 | 49.13211 | 34545 ft | 458 kts | 115° |
| 2026-04-27 18:00 | 64.38062 | 49.26920 | 34544 ft | 458 kts | 115° |
| 2026-04-27 18:00 | 64.35822 | 49.40683 | 34543 ft | 459 kts | 114° |
| 2026-04-27 18:01 | 64.34339 | 49.49858 | 34551 ft | 460 kts | 114° |
| 2026-04-27 18:01 | 64.31315 | 49.68475 | 34545 ft | 457 kts | 115° |
| 2026-04-27 18:02 | 64.29077 | 49.82104 | 34549 ft | 458 kts | 115° |
| 2026-04-27 18:02 | 64.27089 | 49.94114 | 34548 ft | 457 kts | 115° |
| 2026-04-27 18:03 | 64.24816 | 50.07731 | 34568 ft | 458 kts | 115° |
| 2026-04-27 18:03 | 64.22559 | 50.21180 | 34185 ft | 447 kts | 115° |
| 2026-04-27 18:04 | 64.21448 | 50.27767 | 33688 ft | 444 kts | 115° |
| 2026-04-27 18:04 | 64.20338 | 50.34321 | 32998 ft | 445 kts | 115° |
| 2026-04-27 18:04 | 64.19204 | 50.40972 | 32183 ft | 447 kts | 115° |
| 2026-04-27 18:04 | 64.18085 | 50.47510 | 31366 ft | 449 kts | 115° |
| 2026-04-27 18:05 | 64.16937 | 50.54205 | 30527 ft | 451 kts | 115° |
| 2026-04-27 18:05 | 64.15791 | 50.60872 | 29664 ft | 454 kts | 115° |
| 2026-04-27 18:05 | 64.14648 | 50.67499 | 28774 ft | 456 kts | 116° |
| 2026-04-27 18:05 | 64.13476 | 50.74275 | 27837 ft | 459 kts | 116° |
| 2026-04-27 18:06 | 64.12369 | 50.80641 | 26911 ft | 462 kts | 116° |
| 2026-04-27 18:06 | 64.11180 | 50.87465 | 25899 ft | 465 kts | 116° |
| 2026-04-27 18:06 | 64.09975 | 50.94354 | 24846 ft | 468 kts | 116° |
| 2026-04-27 18:06 | 64.08775 | 51.01198 | 23927 ft | 466 kts | 116° |
| 2026-04-27 18:07 | 64.07580 | 51.08001 | 23348 ft | 457 kts | 115° |
| 2026-04-27 18:07 | 64.06420 | 51.14592 | 22749 ft | 449 kts | 115° |
| 2026-04-27 18:07 | 64.05263 | 51.21127 | 22136 ft | 442 kts | 115° |
| 2026-04-27 18:07 | 64.04108 | 51.27627 | 21519 ft | 435 kts | 115° |
| 2026-04-27 18:08 | 64.02974 | 51.33966 | 20876 ft | 430 kts | 115° |
| 2026-04-27 18:08 | 64.01859 | 51.40187 | 20272 ft | 423 kts | 115° |
| 2026-04-27 18:08 | 64.00743 | 51.46384 | 19636 ft | 418 kts | 115° |
| 2026-04-27 18:08 | 63.99643 | 51.52470 | 18999 ft | 420 kts | 115° |
| 2026-04-27 18:09 | 63.98534 | 51.58582 | 18376 ft | 419 kts | 115° |
| 2026-04-27 18:09 | 63.97425 | 51.64703 | 17751 ft | 413 kts | 115° |
| 2026-04-27 18:09 | 63.96349 | 51.70622 | 17136 ft | 408 kts | 116° |
| 2026-04-27 18:09 | 63.95266 | 51.76566 | 16509 ft | 403 kts | 116° |
| 2026-04-27 18:10 | 63.94377 | 51.81431 | 16003 ft | 399 kts | 116° |
| 2026-04-27 18:10 | 63.93301 | 51.87291 | 15403 ft | 402 kts | 116° |
| 2026-04-27 18:10 | 63.92224 | 51.93125 | 14817 ft | 401 kts | 116° |
| 2026-04-27 18:10 | 63.91157 | 51.98883 | 14169 ft | 396 kts | 116° |
| 2026-04-27 18:11 | 63.90089 | 52.04660 | 13540 ft | 392 kts | 115° |
| 2026-04-27 18:11 | 63.89041 | 52.10326 | 12927 ft | 387 kts | 116° |
| 2026-04-27 18:11 | 63.88060 | 52.15608 | 12340 ft | 383 kts | 116° |
| 2026-04-27 18:11 | 63.87069 | 52.20920 | 11733 ft | 379 kts | 116° |
| 2026-04-27 18:12 | 63.86046 | 52.26406 | 11170 ft | 374 kts | 116° |
| 2026-04-27 18:12 | 63.85117 | 52.31900 | 10804 ft | 371 kts | 110° |
| 2026-04-27 18:12 | 63.84537 | 52.37489 | 10585 ft | 360 kts | 103° |
| 2026-04-27 18:12 | 63.84195 | 52.42983 | 10448 ft | 346 kts | 100° |
| 2026-04-27 18:13 | 63.83939 | 52.48231 | 10295 ft | 333 kts | 101° |
| 2026-04-27 18:13 | 63.83696 | 52.53341 | 10146 ft | 320 kts | 99° |
| 2026-04-27 18:13 | 63.83441 | 52.58236 | 10001 ft | 308 kts | 102° |
| 2026-04-27 18:13 | 63.83154 | 52.62982 | 9861 ft | 297 kts | 102° |
| 2026-04-27 18:14 | 63.82875 | 52.67530 | 9693 ft | 287 kts | 103° |
| 2026-04-27 18:14 | 63.82601 | 52.71933 | 9364 ft | 285 kts | 103° |
| 2026-04-27 18:14 | 63.82344 | 52.76084 | 8984 ft | 281 kts | 103° |
| 2026-04-27 18:14 | 63.82084 | 52.80392 | 8649 ft | 275 kts | 103° |
| 2026-04-27 18:15 | 63.81830 | 52.84652 | 8328 ft | 270 kts | 104° |
| 2026-04-27 18:15 | 63.81578 | 52.88834 | 7986 ft | 269 kts | 104° |
| 2026-04-27 18:15 | 63.81321 | 52.93009 | 7647 ft | 268 kts | 104° |
| 2026-04-27 18:15 | 63.81062 | 52.97155 | 7321 ft | 267 kts | 104° |
| 2026-04-27 18:16 | 63.80798 | 53.01317 | 6872 ft | 268 kts | 104° |
| 2026-04-27 18:16 | 63.80532 | 53.05468 | 6390 ft | 267 kts | 104° |
| 2026-04-27 18:16 | 63.80268 | 53.09549 | 6089 ft | 260 kts | 104° |
| 2026-04-27 18:16 | 63.80014 | 53.13561 | 5895 ft | 249 kts | 104° |
| 2026-04-27 18:17 | 63.79776 | 53.17340 | 5757 ft | 237 kts | 104° |
| 2026-04-27 18:17 | 63.79543 | 53.20977 | 5586 ft | 231 kts | 105° |
| 2026-04-27 18:17 | 63.79313 | 53.24506 | 5377 ft | 224 kts | 106° |
| 2026-04-27 18:17 | 63.79079 | 53.27943 | 5124 ft | 220 kts | 105° |
| 2026-04-27 18:18 | 63.78852 | 53.31337 | 4845 ft | 216 kts | 105° |
| 2026-04-27 18:18 | 63.78639 | 53.34597 | 4716 ft | 205 kts | 106° |
| 2026-04-27 18:18 | 63.78430 | 53.37718 | 4572 ft | 195 kts | 107° |
| 2026-04-27 18:18 | 63.78234 | 53.40689 | 4370 ft | 190 kts | 107° |
| 2026-04-27 18:19 | 63.78040 | 53.43547 | 4283 ft | 179 kts | 108° |
| 2026-04-27 18:19 | 63.77861 | 53.46247 | 4167 ft | 170 kts | 108° |
| 2026-04-27 18:19 | 63.77685 | 53.48867 | 3971 ft | 167 kts | 109° |
| 2026-04-27 18:19 | 63.77508 | 53.51439 | 3752 ft | 165 kts | 108° |
| 2026-04-27 18:20 | 63.77338 | 53.53995 | 3529 ft | 163 kts | 108° |
| 2026-04-27 18:20 | 63.77168 | 53.56529 | 3295 ft | 162 kts | 109° |
| 2026-04-27 18:20 | 63.76992 | 53.59020 | 3066 ft | 161 kts | 108° |
| 2026-04-27 18:20 | 63.76826 | 53.61514 | 2822 ft | 161 kts | 107° |
| 2026-04-27 18:21 | 63.76652 | 53.63988 | 2665 ft | 158 kts | 108° |
| 2026-04-27 18:21 | 63.76489 | 53.66437 | 2570 ft | 160 kts | 107° |
| 2026-04-27 18:21 | 63.76314 | 53.68903 | 2453 ft | 159 kts | 110° |
| 2026-04-27 18:21 | 63.76079 | 53.71011 | 2340 ft | 155 kts | 113° |
| 2026-04-27 18:22 | 63.75785 | 53.73378 | 2341 ft | 157 kts | 113° |
| 2026-04-27 18:22 | 63.75498 | 53.75777 | 2342 ft | 157 kts | 112° |
| 2026-04-27 18:22 | 63.75210 | 53.78171 | 2342 ft | 157 kts | 113° |
| 2026-04-27 18:22 | 63.74909 | 53.80573 | 2341 ft | 157 kts | 113° |
| 2026-04-27 18:23 | 63.74623 | 53.82972 | 2341 ft | 158 kts | 112° |
| 2026-04-27 18:23 | 63.74337 | 53.85370 | 2340 ft | 157 kts | 112° |
| 2026-04-27 18:23 | 63.74024 | 53.87797 | 2340 ft | 155 kts | 118° |
| 2026-04-27 18:23 | 63.73379 | 53.89628 | 2335 ft | 146 kts | 154° |
| 2026-04-27 18:24 | 63.72365 | 53.89843 | 2340 ft | 150 kts | 186° |
| 2026-04-27 18:24 | 63.71342 | 53.89400 | 2342 ft | 149 kts | 185° |
| 2026-04-27 18:24 | 63.70319 | 53.88907 | 2359 ft | 150 kts | 189° |
| 2026-04-27 18:24 | 63.69356 | 53.88317 | 2360 ft | 140 kts | 189° |
| 2026-04-27 18:25 | 63.68409 | 53.87746 | 2236 ft | 143 kts | 189° |
| 2026-04-27 18:25 | 63.67467 | 53.87150 | 2027 ft | 138 kts | 189° |
| 2026-04-27 18:25 | 63.66566 | 53.86590 | 1833 ft | 134 kts | 189° |
| 2026-04-27 18:25 | 63.65662 | 53.86036 | 1648 ft | 136 kts | 189° |
| 2026-04-27 18:26 | 63.64737 | 53.85446 | 1456 ft | 138 kts | 190° |
| 2026-04-27 18:26 | 63.63821 | 53.84877 | 1265 ft | 139 kts | 190° |
| 2026-04-27 18:26 | 63.62879 | 53.84301 | 1071 ft | 140 kts | 191° |
| 2026-04-27 18:26 | 63.61928 | 53.83701 | 878 ft | 142 kts | 192° |
| 2026-04-27 18:27 | 63.60970 | 53.83108 | 680 ft | 144 kts | 192° |
| 2026-04-27 18:27 | 63.59985 | 53.82496 | 479 ft | 147 kts | 193° |
| 2026-04-27 18:27 | 63.58988 | 53.81869 | 342 ft | 145 kts | 193° |
| 2026-04-27 18:27 | 63.58001 | 53.81268 | 89 ft | 149 kts | 193° |
| 2026-04-27 18:28 | 63.56995 | 53.80647 | 1 ft | 133 kts | 194° |
| 2026-04-27 18:28 | 63.56345 | 53.80242 | 1 ft | 57 kts | 195° |
| 2026-04-27 18:28 | 63.56081 | 53.80075 | 1 ft | 34 kts | 195° |
| 2026-04-27 18:28 | 63.55912 | 53.80000 | 1 ft | 14 kts | 160° |
| 2026-04-27 18:29 | 63.55823 | 53.80112 | 1 ft | 14 kts | 150° |
| 2026-04-27 18:29 | 63.55747 | 53.80200 | 1 ft | 10 kts | 159° |
| 2026-04-27 18:29 | 63.55700 | 53.80306 | 1 ft | 9 kts | 176° |
| 2026-04-27 18:29 | 63.55675 | 53.80255 | 1 ft | 2 kts | 259° |
| 2026-04-27 18:30 | 63.55673 | 53.80237 | 1 ft | 0 kts | 255° |